createdAt,value
2022-09-23T00:01:11.387Z,16.45
2022-09-23T00:03:41.837Z,16.45
2022-09-23T00:06:11.643Z,16.45
2022-09-23T00:08:40.092Z,16.43
2022-09-23T00:11:17.377Z,16.40
2022-09-23T00:13:46.882Z,16.41
2022-09-23T00:16:16.632Z,16.41
2022-09-23T00:18:44.147Z,16.24
2022-09-23T00:21:14.738Z,16.35
2022-09-23T00:23:44.539Z,16.35
2022-09-23T00:30:06.159Z,16.33
2022-09-23T00:32:35.393Z,16.32
2022-09-23T00:35:04.992Z,16.33
2022-09-23T00:37:33.155Z,16.33
2022-09-23T00:40:01.480Z,16.35
2022-09-23T00:42:29.837Z,16.32
2022-09-23T00:45:00.350Z,16.32
2022-09-23T00:47:41.261Z,16.29
2022-09-23T00:52:44.566Z,16.32
2022-09-23T00:55:16.020Z,16.31
2022-09-23T00:57:45.979Z,16.32
2022-09-23T01:00:15.776Z,16.31
2022-09-23T01:02:42.495Z,16.13
2022-09-23T01:05:09.527Z,16.26
2022-09-23T01:07:36.116Z,16.27
2022-09-23T01:10:03.472Z,16.28
2022-09-23T01:26:39.304Z,16.51
2022-09-23T01:29:45.693Z,16.30
2022-09-23T01:32:37.753Z,16.31
2022-09-23T01:46:20.569Z,16.22
2022-09-23T01:48:56.366Z,16.19
2022-09-23T01:51:32.791Z,16.16
2022-09-23T01:54:12.176Z,16.13
2022-09-23T01:56:46.589Z,16.14
2022-09-23T02:02:28.415Z,16.08
2022-09-23T02:05:02.311Z,16.09
2022-09-23T02:07:38.506Z,16.08
2022-09-23T02:10:13.292Z,16.09
2022-09-23T02:12:44.042Z,16.07
2022-09-23T02:15:15.656Z,16.05
2022-09-23T02:17:52.067Z,16.02
2022-09-23T02:20:25.572Z,16.01
2022-09-23T02:23:03.365Z,15.98
2022-09-23T02:25:40.835Z,15.96
2022-09-23T02:28:31.997Z,15.88
2022-09-23T02:31:08.727Z,15.88
2022-09-23T02:33:43.298Z,15.89
2022-09-23T02:36:22.224Z,15.85
2022-09-23T02:38:57.552Z,15.85
2022-09-23T02:42:03.917Z,15.79
2022-09-23T02:44:33.014Z,15.81
2022-09-23T02:47:00.023Z,15.80
2022-09-23T02:49:29.521Z,15.81
2022-09-23T02:51:57.540Z,15.79
2022-09-23T02:54:27.962Z,15.79
2022-09-23T02:56:55.367Z,15.78
2022-09-23T02:59:23.774Z,15.78
2022-09-23T03:18:20.416Z,15.73
2022-09-23T03:20:52.621Z,15.74
2022-09-23T03:23:25.202Z,15.72
2022-09-23T03:25:55.490Z,15.70
2022-09-23T03:28:25.436Z,15.67
2022-09-23T03:30:54.094Z,15.66
2022-09-23T03:33:28.521Z,15.65
2022-09-23T03:36:22.696Z,15.62
2022-09-23T03:38:52.783Z,15.60
2022-09-23T03:41:30.107Z,15.57
2022-09-23T03:43:59.517Z,15.59
2022-09-23T03:46:28.563Z,15.57
2022-09-23T03:49:05.538Z,15.54
2022-09-23T03:51:32.133Z,15.52
2022-09-23T03:53:58.782Z,15.50
2022-09-23T03:56:25.326Z,15.46
2022-09-23T03:58:51.945Z,15.45
2022-09-23T04:01:18.565Z,15.41
2022-09-23T04:03:45.388Z,15.38
2022-09-23T04:06:12.068Z,15.37
2022-09-23T04:08:38.794Z,15.33
2022-09-23T04:11:05.552Z,15.32
2022-09-23T04:13:32.307Z,15.31
2022-09-23T04:15:59.027Z,15.28
2022-09-23T04:18:25.635Z,15.27
2022-09-23T04:20:56.465Z,15.26
2022-09-23T04:23:24.278Z,15.24
2022-09-23T04:25:50.846Z,15.23
2022-09-23T04:28:17.406Z,15.22
2022-09-23T04:30:44.429Z,15.22
2022-09-23T04:33:11.245Z,15.22
2022-09-23T04:35:40.406Z,15.21
2022-09-23T04:38:07.315Z,15.22
2022-09-23T04:40:34.323Z,15.21
2022-09-23T04:43:00.873Z,15.21
2022-09-23T04:45:27.767Z,15.19
2022-09-23T04:47:55.128Z,15.19
2022-09-23T04:50:21.715Z,15.18
2022-09-23T04:52:48.228Z,15.15
2022-09-23T04:55:14.806Z,15.14
2022-09-23T04:57:42.060Z,15.12
2022-09-23T05:00:09.469Z,15.10
2022-09-23T05:02:42.679Z,15.07
2022-09-23T05:05:09.223Z,15.06
2022-09-23T05:07:36.270Z,15.05
2022-09-23T05:10:03.068Z,15.01
2022-09-23T05:12:29.600Z,15.02
2022-09-23T05:14:56.648Z,15.00
2022-09-23T05:17:24.075Z,14.99
2022-09-23T05:19:50.735Z,14.97
2022-09-23T05:22:17.314Z,14.93
2022-09-23T05:24:43.865Z,14.90
2022-09-23T05:27:10.391Z,14.87
2022-09-23T05:29:36.955Z,14.85
2022-09-23T05:32:03.551Z,14.85
2022-09-23T05:34:30.371Z,14.85
2022-09-23T05:36:58.493Z,14.86
2022-09-23T05:39:25.073Z,14.88
2022-09-23T05:41:52.996Z,14.88
2022-09-23T05:44:19.578Z,14.90
2022-09-23T05:46:46.218Z,14.90
2022-09-23T05:49:12.910Z,14.89
2022-09-23T05:51:39.551Z,14.90
2022-09-23T05:54:06.458Z,14.90
2022-09-23T05:56:34.586Z,14.90
2022-09-23T05:59:02.431Z,14.90
2022-09-23T06:01:33.612Z,14.92
2022-09-23T06:04:02.198Z,14.93
2022-09-23T06:06:31.413Z,14.93
2022-09-23T06:08:59.690Z,14.92
2022-09-23T06:11:27.269Z,14.91
2022-09-23T06:13:56.400Z,14.92
2022-09-23T06:16:23.037Z,14.93
2022-09-23T06:18:49.794Z,14.93
2022-09-23T06:21:17.546Z,14.95
2022-09-23T06:23:45.000Z,14.95
2022-09-23T06:26:14.502Z,14.96
2022-09-23T06:28:43.107Z,14.95
2022-09-23T06:31:14.084Z,14.98
2022-09-23T06:33:42.478Z,14.99
2022-09-23T06:36:10.186Z,14.99
2022-09-23T06:38:41.786Z,15.02
2022-09-23T06:41:08.402Z,15.03
2022-09-23T06:43:35.100Z,15.02
2022-09-23T06:46:04.294Z,15.06
2022-09-23T06:48:35.299Z,15.08
2022-09-23T06:51:05.017Z,15.11
2022-09-23T06:53:32.282Z,15.14
2022-09-23T06:56:08.355Z,15.17
2022-09-23T06:58:36.374Z,15.23
2022-09-23T07:01:07.137Z,15.24
2022-09-23T07:03:34.595Z,15.24
2022-09-23T07:06:01.640Z,15.22
2022-09-23T07:08:30.009Z,15.22
2022-09-23T07:10:59.323Z,15.22
2022-09-23T07:13:26.915Z,15.20
2022-09-23T07:15:55.391Z,15.22
2022-09-23T07:18:24.061Z,15.26
2022-09-23T07:20:50.661Z,15.25
2022-09-23T07:23:18.500Z,15.26
2022-09-23T07:25:50.401Z,15.28
2022-09-23T07:28:18.080Z,15.29
2022-09-23T07:30:55.929Z,15.33
2022-09-23T07:33:32.139Z,15.38
2022-09-23T07:35:59.328Z,15.44
2022-09-23T07:38:30.194Z,15.48
2022-09-23T07:41:03.977Z,15.52
2022-09-23T07:43:32.519Z,15.57
2022-09-23T07:46:03.378Z,15.72
2022-09-23T07:48:34.449Z,15.94
2022-09-23T07:51:06.563Z,16.09
2022-09-23T07:53:33.416Z,16.13
2022-09-23T07:55:59.974Z,16.12
2022-09-23T07:58:26.541Z,16.07
2022-09-23T08:00:53.654Z,16.03
2022-09-23T08:03:20.964Z,16.00
2022-09-23T08:05:47.701Z,16.01
2022-09-23T08:08:14.251Z,16.01
2022-09-23T08:10:40.860Z,15.97
2022-09-23T08:13:07.450Z,15.94
2022-09-23T08:15:34.378Z,15.92
2022-09-23T08:18:01.892Z,15.91
2022-09-23T08:20:48.409Z,15.93
2022-09-23T08:23:16.791Z,16.02
2022-09-23T08:25:47.085Z,16.15
2022-09-23T08:28:16.449Z,16.41
2022-09-23T08:30:44.862Z,16.89
2022-09-23T08:33:12.209Z,17.60
2022-09-23T08:35:38.879Z,18.17
2022-09-23T08:38:06.360Z,18.52
2022-09-23T08:40:36.467Z,19.08
2022-09-23T08:43:06.977Z,19.68
2022-09-23T08:45:37.971Z,20.46
2022-09-23T08:48:15.815Z,21.40
2022-09-23T08:50:47.449Z,22.24
2022-09-23T08:53:23.602Z,22.95
2022-09-23T08:55:52.393Z,23.23
2022-09-23T09:06:53.197Z,22.03
2022-09-23T09:09:27.559Z,21.69
2022-09-23T09:12:03.256Z,21.43
2022-09-23T09:14:59.179Z,21.14
2022-09-23T09:20:38.980Z,21.95
2022-09-23T09:23:21.556Z,22.28
2022-09-23T09:25:52.200Z,22.45
2022-09-23T09:30:59.970Z,22.77
2022-09-23T09:33:35.178Z,23.26
2022-09-23T09:36:10.686Z,24.05
2022-09-23T09:38:37.282Z,24.11
2022-09-23T09:41:13.859Z,23.86
2022-09-23T09:43:44.180Z,23.65
2022-09-23T09:49:00.777Z,24.30
2022-09-23T09:51:29.345Z,24.28
2022-09-23T09:54:18.180Z,24.62
2022-09-23T09:56:45.015Z,24.99
2022-09-23T09:59:18.156Z,24.69
2022-09-23T10:01:46.190Z,24.64
2022-09-23T10:07:14.381Z,25.10
2022-09-23T10:09:48.788Z,25.12
2022-09-23T10:12:19.578Z,25.12
2022-09-23T10:14:51.342Z,25.05
2022-09-23T10:17:24.532Z,24.92
2022-09-23T10:20:00.301Z,24.72
2022-09-23T10:22:29.990Z,24.69
2022-09-23T10:25:02.103Z,24.59
2022-09-23T10:27:32.390Z,24.39
2022-09-23T10:30:04.063Z,24.39
2022-09-23T10:32:34.390Z,24.32
2022-09-23T10:37:50.101Z,24.22
2022-09-23T10:40:45.459Z,24.17
2022-09-23T10:46:09.567Z,24.22
2022-09-23T10:51:58.904Z,23.64
2022-09-23T10:57:41.792Z,23.28
2022-09-23T11:06:03.344Z,22.93
2022-09-23T11:14:38.905Z,22.85
2022-09-23T11:17:32.268Z,22.72
2022-09-23T11:36:11.378Z,21.80
2022-09-23T11:38:43.707Z,21.67
2022-09-23T11:41:19.788Z,21.61
2022-09-23T11:43:52.347Z,21.68
2022-09-23T11:49:22.764Z,21.45
2022-09-23T11:52:03.022Z,21.32
2022-09-23T11:54:53.506Z,21.10
2022-09-23T11:57:40.418Z,21.09
2022-09-23T12:00:19.405Z,21.09
2022-09-23T12:05:25.911Z,21.01
2022-09-23T12:19:31.079Z,21.22
2022-09-23T12:22:24.829Z,21.14
2022-09-23T12:24:59.616Z,21.03
2022-09-23T12:27:46.666Z,20.84
2022-09-23T12:30:20.321Z,20.84
2022-09-23T12:32:47.238Z,20.88
2022-09-23T12:35:38.545Z,20.94
2022-09-23T12:38:14.230Z,21.04
2022-09-23T12:40:43.983Z,21.09
2022-09-23T12:43:27.306Z,20.97
2022-09-23T12:45:53.899Z,20.87
2022-09-23T12:51:12.786Z,20.88
2022-09-23T12:53:59.722Z,21.03
2022-09-23T13:02:09.511Z,21.08
2022-09-23T13:05:12.656Z,20.86
2022-09-23T13:07:45.456Z,20.77
2022-09-23T13:10:19.464Z,20.85
2022-09-23T13:12:47.368Z,20.86
2022-09-23T13:20:55.013Z,20.86
2022-09-23T13:26:09.066Z,21.11
2022-09-23T13:28:44.671Z,21.24
2022-09-23T13:31:16.761Z,21.34
2022-09-23T13:33:50.385Z,21.31
2022-09-23T13:36:18.568Z,21.19
2022-09-23T13:38:47.070Z,21.00
2022-09-23T13:43:58.674Z,20.77
2022-09-23T13:46:35.069Z,20.71
2022-09-23T13:49:02.857Z,20.76
2022-09-23T13:51:34.051Z,20.91
2022-09-23T13:54:03.774Z,21.11
2022-09-23T13:56:33.257Z,21.20
2022-09-23T13:59:19.567Z,21.06
2022-09-23T14:01:47.079Z,21.11
2022-09-23T14:04:25.471Z,20.96
2022-09-23T14:06:54.579Z,20.93
2022-09-23T14:09:27.387Z,20.90
2022-09-23T14:11:56.287Z,20.89
2022-09-23T14:14:23.291Z,20.88
2022-09-23T14:16:52.015Z,20.89
2022-09-23T14:19:21.893Z,20.91
2022-09-23T14:21:50.779Z,20.97
2022-09-23T14:24:35.437Z,20.93
2022-09-23T14:27:15.766Z,20.96
2022-09-23T14:29:45.197Z,20.95
2022-09-23T14:32:16.519Z,20.90
2022-09-23T14:34:56.324Z,20.78
2022-09-23T14:40:05.733Z,20.66
2022-09-23T14:42:39.093Z,20.63
2022-09-23T14:45:06.436Z,20.66
2022-09-23T14:47:35.135Z,20.67
2022-09-23T14:50:21.925Z,20.69
2022-09-23T14:52:50.841Z,20.62
2022-09-23T14:55:18.072Z,20.58
2022-09-23T14:57:45.860Z,20.48
2022-09-23T15:03:14.724Z,20.19
2022-09-23T15:05:44.875Z,20.17
2022-09-23T15:08:17.655Z,20.08
2022-09-23T15:10:46.216Z,20.01
2022-09-23T15:13:17.805Z,19.94
2022-09-23T15:15:44.760Z,19.93
2022-09-23T15:18:18.782Z,19.92
2022-09-23T15:20:52.399Z,19.90
2022-09-23T15:26:19.039Z,19.92
2022-09-23T15:28:46.800Z,19.90
2022-09-23T15:31:16.241Z,19.86
2022-09-23T15:33:45.081Z,19.85
2022-09-23T15:36:18.525Z,19.78
2022-09-23T15:38:46.197Z,19.75
2022-09-23T15:41:15.026Z,19.73
2022-09-23T15:43:41.962Z,19.70
2022-09-23T15:46:17.661Z,19.67
2022-09-23T15:48:58.468Z,19.64
2022-09-23T15:51:27.189Z,19.50
2022-09-23T15:53:55.262Z,19.42
2022-09-23T15:56:23.790Z,19.35
2022-09-23T15:58:50.624Z,19.30
2022-09-23T16:01:24.364Z,19.27
2022-09-23T16:03:50.967Z,19.25
2022-09-23T16:06:17.626Z,19.23
2022-09-23T16:08:44.239Z,19.21
2022-09-23T16:11:20.822Z,19.18
2022-09-23T16:13:47.480Z,19.19
2022-09-23T16:16:14.154Z,19.18
2022-09-23T16:18:43.962Z,19.16
2022-09-23T16:21:14.303Z,19.17
2022-09-23T16:23:43.922Z,19.14
2022-09-23T16:28:49.940Z,19.08
2022-09-23T16:31:16.898Z,19.06
2022-09-23T16:33:45.865Z,19.05
2022-09-23T16:36:32.183Z,18.96
2022-09-23T16:39:00.760Z,18.95
2022-09-23T16:41:29.532Z,18.91
2022-09-23T16:43:56.434Z,18.85
2022-09-23T16:46:24.777Z,18.79
2022-09-23T16:48:54.487Z,18.74
2022-09-23T16:51:23.970Z,18.71
2022-09-23T16:53:51.545Z,18.69
2022-09-23T16:56:25.636Z,18.65
2022-09-23T16:58:54.820Z,18.60
2022-09-23T17:01:44.276Z,18.54
2022-09-23T17:04:11.589Z,18.48
2022-09-23T17:06:54.365Z,18.38
2022-09-23T17:09:23.380Z,18.38
2022-09-23T17:11:58.975Z,18.32
2022-09-23T17:14:25.584Z,18.27
2022-09-23T17:16:52.099Z,18.22
2022-09-23T17:19:19.363Z,18.17
2022-09-23T17:21:46.530Z,18.13
2022-09-23T17:24:13.124Z,18.09
2022-09-23T17:26:39.640Z,18.01
2022-09-23T17:29:06.367Z,17.94
2022-09-23T17:31:33.183Z,17.87
2022-09-23T17:34:00.842Z,17.78
2022-09-23T17:36:28.038Z,17.70
2022-09-23T17:38:54.553Z,17.63
2022-09-23T17:41:21.604Z,17.57
2022-09-23T17:43:53.569Z,17.52
2022-09-23T17:46:20.125Z,17.43
2022-09-23T17:48:47.089Z,17.37
2022-09-23T17:51:17.436Z,17.31
2022-09-23T17:53:46.538Z,17.21
2022-09-23T17:58:53.618Z,17.08
2022-09-23T18:01:23.380Z,17.01
2022-09-23T18:03:55.144Z,16.92
2022-09-23T18:06:23.863Z,16.86
2022-09-23T18:08:51.225Z,16.78
2022-09-23T18:11:20.488Z,16.69
2022-09-23T18:13:49.994Z,16.61
2022-09-23T18:16:17.286Z,16.52
2022-09-23T18:18:44.669Z,16.44
2022-09-23T18:21:11.252Z,16.36
2022-09-23T18:23:37.937Z,16.29
2022-09-23T18:26:12.646Z,16.23
2022-09-23T18:28:39.663Z,16.12
2022-09-23T18:31:06.243Z,16.06
2022-09-23T18:33:32.802Z,16.01
2022-09-23T18:36:00.023Z,15.94
2022-09-23T18:38:26.759Z,15.89
2022-09-23T18:40:56.875Z,15.84
2022-09-23T18:43:25.908Z,15.79
2022-09-23T18:45:58.186Z,15.70
2022-09-23T18:48:45.308Z,15.64
2022-09-23T18:51:12.928Z,15.58
2022-09-23T18:53:40.920Z,15.53
2022-09-23T18:56:11.409Z,15.50
2022-09-23T18:58:38.369Z,15.43
2022-09-23T19:01:07.165Z,15.40
2022-09-23T19:03:35.218Z,15.35
2022-09-23T19:06:04.761Z,15.31
2022-09-23T19:08:32.161Z,15.24
2022-09-23T19:11:01.187Z,15.15
2022-09-23T19:13:27.728Z,15.09
2022-09-23T19:15:54.470Z,15.06
2022-09-23T19:18:21.065Z,15.04
2022-09-23T19:20:51.116Z,15.03
2022-09-23T19:23:19.290Z,15.00
2022-09-23T19:25:46.532Z,14.98
2022-09-23T19:28:14.048Z,14.96
2022-09-23T19:30:40.849Z,14.95
2022-09-23T19:33:09.114Z,14.93
2022-09-23T19:35:46.665Z,14.90
2022-09-23T19:38:14.487Z,14.88
2022-09-23T19:40:41.105Z,14.87
2022-09-23T19:43:07.685Z,14.85
2022-09-23T19:45:34.355Z,14.85
2022-09-23T19:48:02.113Z,14.84
2022-09-23T19:50:34.365Z,14.84
2022-09-23T19:53:01.824Z,14.82
2022-09-23T19:55:29.325Z,14.77
2022-09-23T19:57:55.942Z,14.76
2022-09-23T20:00:22.714Z,14.75
2022-09-23T20:02:49.945Z,14.72
2022-09-23T20:05:20.299Z,14.69
2022-09-23T20:07:47.250Z,14.64
2022-09-23T20:10:14.107Z,14.59
2022-09-23T20:12:42.344Z,14.56
2022-09-23T20:15:11.104Z,14.52
2022-09-23T20:17:40.200Z,14.47
2022-09-23T20:20:09.285Z,14.43
2022-09-23T20:22:36.459Z,14.39
2022-09-23T20:25:03.987Z,14.36
2022-09-23T20:27:31.576Z,14.34
2022-09-23T20:29:59.430Z,14.31
2022-09-23T20:32:27.128Z,14.27
2022-09-23T20:34:56.366Z,14.25
2022-09-23T20:37:24.879Z,14.23
2022-09-23T20:39:52.878Z,14.22
2022-09-23T20:42:20.654Z,14.20
2022-09-23T20:44:47.548Z,14.17
2022-09-23T20:47:16.929Z,14.14
2022-09-23T20:49:46.342Z,14.13
2022-09-23T20:52:16.369Z,14.11
2022-09-23T20:54:43.353Z,14.10
2022-09-23T20:57:13.282Z,14.09
2022-09-23T20:59:41.086Z,13.80
2022-09-23T21:02:08.433Z,13.90
2022-09-23T21:04:35.211Z,13.88
2022-09-23T21:07:01.740Z,13.85
2022-09-23T21:09:31.240Z,13.84
2022-09-23T21:11:58.240Z,13.83
2022-09-23T21:14:25.188Z,13.81
2022-09-23T21:16:52.871Z,13.80
2022-09-23T21:19:19.612Z,13.78
2022-09-23T21:21:46.280Z,13.75
2022-09-23T21:24:48.712Z,13.71
2022-09-23T21:27:03.913Z,13.66
2022-09-23T21:29:30.435Z,13.64
2022-09-23T21:31:57.287Z,13.62
2022-09-23T21:34:26.119Z,13.62
2022-09-23T21:36:52.660Z,13.61
2022-09-23T21:39:19.520Z,13.61
2022-09-23T21:41:46.110Z,13.60
2022-09-23T21:44:12.794Z,13.58
2022-09-23T21:46:41.722Z,13.54
2022-09-23T21:49:09.179Z,13.51
2022-09-23T21:51:40.814Z,13.47
2022-09-23T21:54:13.107Z,13.40
2022-09-23T21:56:39.683Z,13.34
2022-09-23T21:59:07.776Z,13.28
2022-09-23T22:01:37.486Z,13.24
2022-09-23T22:04:08.596Z,13.19
2022-09-23T22:06:38.173Z,13.14
2022-09-23T22:09:09.010Z,13.10
2022-09-23T22:11:57.236Z,13.08
2022-09-23T22:14:26.379Z,13.03
2022-09-23T22:16:57.874Z,13.01
2022-09-23T22:19:27.827Z,13.00
2022-09-23T22:21:55.923Z,12.79
2022-09-23T22:24:22.756Z,12.92
2022-09-23T22:26:49.328Z,12.93
2022-09-23T22:29:36.245Z,12.92
2022-09-23T22:32:25.508Z,12.90
2022-09-23T22:34:52.712Z,12.84
2022-09-23T22:37:25.762Z,12.82
2022-09-23T22:39:52.426Z,12.79
2022-09-23T22:42:21.357Z,12.79
2022-09-23T22:44:48.612Z,12.78
2022-09-23T22:47:15.373Z,12.78
2022-09-23T22:49:42.982Z,12.78
2022-09-23T22:52:12.475Z,12.80
2022-09-23T22:54:39.071Z,12.82
2022-09-23T22:57:08.287Z,12.85
2022-09-23T22:59:35.951Z,12.87
2022-09-23T23:02:03.039Z,12.87
2022-09-23T23:04:30.592Z,12.89
2022-09-23T23:06:59.621Z,12.89
2022-09-23T23:09:26.298Z,12.89
2022-09-23T23:11:52.865Z,12.90
2022-09-23T23:14:19.622Z,12.88
2022-09-23T23:16:46.872Z,12.87
2022-09-23T23:19:17.302Z,12.87
2022-09-23T23:21:45.051Z,12.84
2022-09-23T23:24:20.753Z,12.82
2022-09-23T23:26:48.005Z,12.79
2022-09-23T23:29:16.229Z,12.77
2022-09-23T23:31:43.631Z,12.71
2022-09-23T23:34:13.950Z,12.68
2022-09-23T23:36:41.516Z,12.64
2022-09-23T23:39:08.640Z,12.59
2022-09-23T23:41:36.363Z,12.56
2022-09-23T23:44:02.956Z,12.50
2022-09-23T23:46:31.796Z,12.46
2022-09-23T23:49:00.244Z,12.42
2022-09-23T23:51:27.427Z,12.39
2022-09-23T23:53:55.071Z,12.34
2022-09-23T23:56:24.061Z,12.31
2022-09-23T23:58:56.115Z,12.27
